Latest Weather Observations for Sunshine Coast Airport

IDQ60901

Issued at 3:21 pm EST Friday 16 November 2018 (issued every 10 minutes, with the page automatically refreshed every 10 minutes)

About weather observations | Map of Brisbane area stations | Latest observations for Brisbane area | Other Formats
Station Details ID: 040861 Name: SUNSHINE COAST AIRPORT Lat: -26.60 Lon: 153.09 Height: 3.42 m
Data from the previous 72 hours. | See also: Recent months at Sunshine Coast Airport
Date/Time
EST
Temp
°C
App
Temp
°C
Dew
Point
°C
Rel
Hum
%
Delta-T
°C
Wind Press
QNH
hPa
Press
MSL
hPa
Rain since
9am
mm
Dir  Spd
km/h
Gust
km/h
Spd
kts
Gust
kts
16/03:00pm 26.5 25.3 17.6 58 5.6 ENE 20 24 11 13 1013.9 1013.9 0.0
16/02:30pm 26.5 25.3 17.6 58 5.6 ENE 20 26 11 14 1014.3 1014.3 0.0
16/02:00pm 26.1 24.3 16.9 57 5.7 ENE 22 24 12 13 1014.5 1014.5 0.0
16/01:30pm 26.6 25.4 17.1 56 5.9 ENE 19 24 10 13 1015.0 1014.9 0.0
16/01:00pm 26.8 26.0 17.0 55 6.1 ENE 17 22 9 12 1015.5 1015.4 0.0
16/12:30pm 26.7 25.6 17.2 56 5.9 ENE 19 22 10 12 1015.8 1015.7 0.0
16/12:00pm 26.6 25.7 16.8 55 6.1 ENE 17 22 9 12 1016.2 1016.1 0.0
16/11:30am 27.1 26.7 18.1 58 5.7 ENE 17 20 9 11 1016.6 1016.5 0.0
16/11:00am 26.5 25.9 17.6 58 5.6 E 17 20 9 11 1016.9 1016.8 0.0
16/10:30am 26.0 25.2 17.1 58 5.5 ENE 17 20 9 11 1017.3 1017.2 0.0
16/10:00am 25.8 25.1 17.4 59 5.2 E 17 20 9 11 1017.6 1017.5 0.0
16/09:30am 25.8 26.1 18.0 62 4.9 ENE 13 17 7 9 1017.7 1017.6 0.0
16/09:00am 25.5 26.3 18.2 64 4.6 ENE 11 17 6 9 1017.6 1017.5 0.0
16/08:30am 25.5 26.1 17.7 62 4.9 ENE 11 13 6 7 1017.5 1017.4 0.0
16/08:00am 25.5 26.5 17.7 62 4.9 E 9 11 5 6 1017.7 1017.6 0.0
16/07:30am 24.7 26.9 18.4 68 4.0 ENE 4 11 2 6 1017.7 1017.6 0.0
16/07:00am 21.8 24.2 19.7 88 1.3 WSW 6 7 3 4 1017.5 1017.4 0.0
16/06:30am 20.4 22.0 19.2 93 0.8 WSW 9 11 5 6 1017.4 1017.3 0.0
16/06:00am 19.1 21.1 18.8 98 0.2 WNW 6 7 3 4 1017.1 1017.0 0.0
16/05:30am 18.2 19.8 17.9 98 0.2 WNW 6 6 3 3 1016.9 1016.8 0.0
16/05:00am 17.5 18.8 17.0 97 0.3 WNW 6 6 3 3 1016.7 1016.6 0.0
16/04:30am 17.6 18.9 17.1 97 0.3 WNW 6 7 3 4 1016.5 1016.4 0.0
16/04:00am 17.7 19.0 17.2 97 0.3 WNW 6 7 3 4 1016.2 1016.1 0.0
16/03:30am 17.8 19.2 17.3 97 0.3 WNW 6 7 3 4 1015.9 1015.8 0.0
16/03:00am 18.2 19.5 17.6 96 0.4 WNW 7 9 4 5 1015.7 1015.6 0.0
16/02:30am 18.3 19.6 17.5 95 0.5 W 7 9 4 5 1015.8 1015.7 0.0
16/02:00am 18.7 20.3 17.9 95 0.5 W 6 7 3 4 1016.2 1016.1 0.0
16/01:30am 19.1 20.9 18.3 95 0.5 W 6 9 3 5 1016.5 1016.4 0.0
16/01:00am 19.0 20.8 18.3 96 0.4 W 6 6 3 3 1016.7 1016.6 0.0
16/12:30am 19.0 20.8 18.2 95 0.5 W 6 7 3 4 1016.9 1016.8 0.0
16/12:00am 18.8 20.3 18.0 95 0.5 WSW 7 9 4 5 1017.1 1017.0 0.0
 
Date/Time
EST
Temp
°C
App
Temp
°C
Dew
Point
°C
Rel
Hum
%
Delta-T
°C
Wind Press
QNH
hPa
Press
MSL
hPa
Rain since
9am
mm
Dir  Spd
km/h
Gust
km/h
Spd
kts
Gust
kts
15/11:30pm 19.0 20.7 18.0 94 0.6 WSW 6 9 3 5 1017.2 1017.1 0.0
15/11:00pm 19.3 20.8 18.1 93 0.7 WSW 7 9 4 5 1017.2 1017.1 0.0
15/10:33pm 19.6 22.5 18.1 91 0.9 CALM 0 0 0 0 1017.4 1017.3 0.0
15/10:30pm 19.6 22.5 18.1 91 0.9 CALM 0 0 0 0 1017.3 1017.2 0.0
15/10:00pm 19.7 21.5 18.4 92 0.8 WNW 6 9 3 5 1017.3 1017.2 0.0
15/09:30pm 20.0 21.5 18.1 89 1.2 NW 7 7 4 4 1017.5 1017.4 0.0
15/09:00pm 20.2 21.8 17.8 86 1.5 NW 6 9 3 5 1017.4 1017.3 0.0
15/08:30pm 20.7 21.8 17.9 84 1.7 NNE 9 13 5 7 1017.2 1017.1 0.0
15/08:00pm 21.3 22.0 17.9 81 2.1 NNE 11 13 6 7 1017.1 1017.0 0.0
15/07:30pm 22.4 22.4 18.2 77 2.6 NNE 15 19 8 10 1016.9 1016.8 0.0
15/07:00pm 21.1 21.8 17.1 78 2.4 N 9 11 5 6 1016.6 1016.5 0.0
15/06:30pm 22.6 22.7 17.5 73 3.2 NNE 13 19 7 10 1016.4 1016.3 0.0
15/06:00pm 23.2 22.5 17.4 70 3.6 NNE 17 22 9 12 1016.1 1016.0 0.0
15/05:30pm 24.0 23.3 18.2 70 3.6 NE 19 22 10 12 1015.6 1015.5 0.0
15/05:00pm 24.2 23.1 17.4 65 4.2 NNE 19 24 10 13 1015.2 1015.1 0.0
15/04:30pm 25.3 24.4 17.7 62 4.8 NE 19 22 10 12 1015.3 1015.2 0.0
15/04:00pm 25.3 24.5 17.0 60 5.1 NE 17 22 9 12 1015.6 1015.5 0.0
15/03:30pm 26.0 25.7 18.2 62 4.9 NE 17 20 9 11 1015.6 1015.5 0.0
15/03:00pm 26.0 24.8 17.4 59 5.4 NE 20 24 11 13 1015.6 1015.5 0.0
15/02:30pm 26.3 25.1 17.4 58 5.6 NE 20 24 11 13 1015.9 1015.8 0.0
15/02:00pm 26.1 24.7 16.9 57 5.7 ENE 20 26 11 14 1016.0 1015.9 0.0
15/01:30pm 26.5 25.1 17.0 56 5.9 ENE 20 28 11 15 1016.5 1016.4 0.0
15/01:00pm 26.5 25.1 17.0 56 5.9 ENE 20 24 11 13 1016.8 1016.7 0.0
15/12:30pm 26.3 25.1 17.4 58 5.6 ENE 20 24 11 13 1017.1 1017.0 0.0
15/12:00pm 26.1 24.8 16.9 57 5.7 ENE 19 24 10 13 1017.5 1017.4 0.0
15/11:30am 26.3 25.2 17.4 58 5.6 ENE 19 22 10 12 1017.8 1017.7 0.0
15/11:00am 26.9 26.6 18.2 59 5.5 ENE 17 20 9 11 1018.1 1018.0 0.0
15/10:30am 26.5 26.3 18.6 62 5.0 ENE 17 22 9 12 1018.4 1018.3 0.0
15/10:00am 26.0 25.9 17.9 61 5.1 ENE 15 20 8 11 1018.7 1018.6 0.0
15/09:30am 25.9 26.3 19.1 66 4.4 ENE 15 19 8 10 1019.0 1018.9 0.0
15/09:00am 25.8 27.0 19.0 66 4.3 ENE 11 15 6 8 1018.9 1018.8 0.0
15/08:30am 25.2 26.1 18.4 66 4.3 ENE 11 15 6 8 1018.9 1018.8 0.0
15/08:00am 24.9 25.7 18.1 66 4.3 ENE 11 13 6 7 1018.8 1018.7 0.0
15/07:30am 24.9 26.6 18.6 68 4.0 E 7 9 4 5 1018.7 1018.6 0.0
15/07:00am 22.0 25.4 19.4 85 1.7 CALM 0 0 0 0 1018.2 1018.1 0.0
15/06:30am 20.1 22.6 19.8 98 0.2 W 6 7 3 4 1017.9 1017.8 0.0
15/06:00am 18.3 20.0 18.0 98 0.2 WSW 6 7 3 4 1017.7 1017.6 0.0
15/05:30am 18.1 19.7 17.8 98 0.2 WSW 6 7 3 4 1017.4 1017.3 0.0
15/05:00am 18.3 19.4 18.0 98 0.2 WSW 9 11 5 6 1017.1 1017.0 0.0
15/04:30am 18.2 19.6 17.9 98 0.2 WSW 7 9 4 5 1016.7 1016.6 0.0
15/04:00am 17.8 20.4 17.5 98 0.2 CALM 0 2 0 1 1016.3 1016.2 0.0
15/03:30am 17.9 19.1 17.4 97 0.3 WSW 7 9 4 5 1016.1 1016.0 0.0
15/03:00am 17.8 19.2 17.3 97 0.3 WSW 6 7 3 4 1016.0 1015.9 0.0
15/02:30am 17.9 19.1 17.4 97 0.3 W 7 9 4 5 1016.1 1016.0 0.0
15/02:00am 18.3 19.9 17.8 97 0.3 W 6 7 3 4 1015.9 1015.8 0.0
15/01:30am 18.7 20.2 18.0 96 0.4 W 7 7 4 4 1016.2 1016.1 0.0
15/01:00am 18.9 20.5 18.2 96 0.4 SW 7 9 4 5 1016.5 1016.4 0.0
15/12:30am 18.9 20.4 18.1 95 0.5 WSW 7 9 4 5 1016.8 1016.7 0.0
15/12:00am 19.3 20.9 18.3 94 0.6 WSW 7 9 4 5 1017.1 1017.0 0.0
 
Date/Time
EST
Temp
°C
App
Temp
°C
Dew
Point
°C
Rel
Hum
%
Delta-T
°C
Wind Press
QNH
hPa
Press
MSL
hPa
Rain since
9am
mm
Dir  Spd
km/h
Gust
km/h
Spd
kts
Gust
kts
14/11:30pm 19.9 21.6 18.4 91 0.9 W 7 9 4 5 1017.4 1017.3 0.0
14/11:00pm 20.4 22.0 18.2 87 1.4 WNW 7 13 4 7 1017.6 1017.5 0.0
14/10:30pm 22.4 23.0 18.6 79 2.4 NE 13 17 7 9 1017.8 1017.7 0.0
14/10:00pm 22.2 22.4 18.6 80 2.3 NNE 15 19 8 10 1017.9 1017.8 0.0
14/09:30pm 22.4 22.2 18.4 78 2.5 NNE 17 20 9 11 1018.0 1017.9 0.0
14/09:00pm 22.5 22.3 18.5 78 2.5 NNE 17 20 9 11 1018.0 1017.9 0.0
14/08:30pm 22.7 23.1 18.9 79 2.4 NE 15 22 8 12 1017.9 1017.8 0.0
14/08:00pm 22.5 22.9 18.9 80 2.3 NE 15 19 8 10 1017.7 1017.6 0.0
14/07:30pm 22.7 22.6 18.7 78 2.5 ENE 17 19 9 10 1017.5 1017.4 0.0
14/07:00pm 22.7 22.7 18.9 79 2.4 ENE 17 19 9 10 1017.5 1017.4 0.0
14/06:30pm 22.9 23.0 19.1 79 2.4 ENE 17 19 9 10 1017.3 1017.2 0.0
14/06:00pm 23.0 23.0 19.0 78 2.5 ENE 17 22 9 12 1017.2 1017.1 0.0
14/05:30pm 23.7 23.5 18.6 73 3.2 ENE 17 22 9 12 1017.0 1016.9 0.0
14/05:00pm 24.2 23.8 18.8 72 3.4 ENE 19 22 10 12 1016.7 1016.6 0.0
14/04:30pm 24.0 23.5 18.6 72 3.4 ENE 19 24 10 13 1016.5 1016.4 0.0
14/04:00pm 24.6 23.8 18.1 67 4.1 ENE 19 24 10 13 1016.3 1016.2 0.0
14/03:30pm 25.9 25.5 18.8 65 4.5 ENE 19 22 10 12 1016.3 1016.2 0.0
14/03:00pm 25.9 25.2 18.6 64 4.6 ENE 20 24 11 13 1016.3 1016.2 0.0
14/02:30pm 25.8 24.7 17.4 59 5.2 ENE 19 22 10 12 1016.3 1016.2 0.0
14/02:00pm 26.0 25.0 17.6 60 5.3 E 19 24 10 13 1016.4 1016.3 0.0
14/01:30pm 25.8 25.4 18.0 62 4.9 ENE 17 20 9 11 1016.7 1016.6 0.0
14/01:00pm 26.4 26.4 19.0 63 4.7 ENE 17 22 9 12 1017.0 1016.9 0.0
14/12:30pm 25.6 25.1 17.8 62 4.9 ENE 17 20 9 11 1017.4 1017.3 0.0
14/12:00pm 26.6 26.7 19.2 64 4.8 NE 17 22 9 12 1017.7 1017.6 0.0
14/11:30am 26.1 25.4 18.2 61 5.0 ENE 19 20 10 11 1017.9 1017.8 0.0
14/11:00am 25.4 25.1 18.3 65 4.5 ENE 17 24 9 13 1018.1 1018.0 0.0
14/10:30am 25.7 25.1 17.6 61 5.1 ENE 17 22 9 12 1018.3 1018.2 0.0
14/10:00am 26.2 25.5 18.3 61 5.0 ENE 19 22 10 12 1018.3 1018.2 0.0
14/09:30am 25.6 24.8 17.0 59 5.3 ENE 17 22 9 12 1018.2 1018.1 0.0
14/09:00am 25.5 24.6 17.7 62 4.9 ENE 19 24 10 13 1018.1 1018.0 0.0
14/08:30am 24.4 25.0 17.6 66 4.2 ESE 11 17 6 9 1018.1 1018.0 0.0
14/08:00am 23.5 24.3 17.3 68 3.8 SE 9 15 5 8 1017.9 1017.8 0.0
14/07:30am 23.6 24.7 17.1 67 4.0 ESE 7 13 4 7 1017.8 1017.7 0.0
14/07:00am 22.1 23.2 18.1 78 2.5 WSW 9 11 5 6 1017.8 1017.7 0.0
14/06:30am 20.7 21.3 16.9 79 2.3 SW 9 13 5 7 1017.5 1017.4 0.0
14/06:00am 18.6 19.2 16.8 89 1.1 WSW 9 11 5 6 1017.1 1017.0 0.0
14/05:30am 17.2 17.9 16.2 94 0.6 WSW 7 9 4 5 1016.8 1016.7 0.0
14/05:00am 16.7 17.3 15.7 94 0.6 WSW 7 11 4 6 1016.6 1016.5 0.0
14/04:30am 16.7 17.3 15.4 92 0.8 WSW 6 7 3 4 1016.4 1016.3 0.0
14/04:00am 17.1 17.7 15.8 92 0.8 SW 7 9 4 5 1016.1 1016.0 0.0
14/03:30am 16.9 17.4 15.6 92 0.8 W 7 9 4 5 1015.8 1015.7 0.0
14/03:00am 17.5 18.4 16.2 92 0.8 SW 6 7 3 4 1015.8 1015.7 0.0
14/02:30am 17.2 17.5 15.9 92 0.8 WSW 9 9 5 5 1016.0 1015.9 0.0
14/02:00am 17.3 17.9 15.8 91 0.9 WSW 7 9 4 5 1016.1 1016.0 0.0
14/01:30am 17.4 18.1 15.7 90 1.0 SW 6 9 3 5 1016.3 1016.2 0.0
14/01:16am 17.6 17.8 15.8 89 1.1 SW 9 13 5 7 1016.4 1016.3 0.0
14/01:00am 17.8 18.0 15.8 88 1.2 SSW 9 11 5 6 1016.6 1016.5 0.0
14/12:30am 18.0 18.7 15.6 86 1.4 S 6 7 3 4 1017.1 1017.0 0.0
14/12:00am 18.3 19.2 16.1 87 1.3 S 6 13 3 7 1017.4 1017.3 0.0
 
Date/Time
EST
Temp
°C
App
Temp
°C
Dew
Point
°C
Rel
Hum
%
Delta-T
°C
Wind Press
QNH
hPa
Press
MSL
hPa
Rain since
9am
mm
Dir  Spd
km/h
Gust
km/h
Spd
kts
Gust
kts
13/11:30pm 18.5 19.1 15.7 84 1.7 SSW 7 9 4 5 1017.6 1017.5 0.0
13/11:00pm 19.0 19.2 15.7 81 1.9 SSW 9 13 5 7 1017.9 1017.8 0.0
13/10:30pm 18.8 18.4 15.3 80 2.1 SW 11 15 6 8 1018.0 1017.9 0.0
13/10:00pm 20.1 19.9 14.7 71 3.1 S 9 13 5 7 1018.2 1018.1 0.0
13/09:30pm 22.3 21.1 16.1 68 3.7 SE 17 22 9 12 1018.2 1018.1 0.0
13/09:00pm 22.3 21.2 16.3 69 3.6 SE 17 24 9 13 1018.2 1018.1 0.0
13/08:30pm 22.3 21.7 16.6 70 3.5 SE 15 19 8 10 1018.1 1018.0 0.0
13/08:00pm 22.1 20.7 15.5 66 3.9 ESE 17 22 9 12 1017.8 1017.7 0.0
13/07:30pm 22.3 20.8 15.4 65 4.1 SE 17 22 9 12 1017.8 1017.7 0.0
13/07:00pm 22.3 20.8 15.2 64 4.2 SE 17 24 9 13 1017.8 1017.7 0.0
13/06:30pm 22.5 20.9 14.9 62 4.5 SE 17 24 9 13 1017.4 1017.3 0.0
13/06:00pm 22.7 20.7 14.0 58 5.1 SE 17 24 9 13 1017.4 1017.3 0.0
13/05:30pm 23.3 21.1 14.3 57 5.3 SE 19 24 10 13 1017.3 1017.2 0.0
13/05:00pm 23.9 21.3 14.9 57 5.4 SE 22 28 12 15 1016.9 1016.8 0.0
13/04:30pm 24.6 22.3 15.8 58 5.3 SE 22 30 12 16 1016.7 1016.6 0.0
13/04:00pm 24.4 22.1 15.6 58 5.3 SE 22 30 12 16 1016.8 1016.7 0.0
13/03:30pm 24.0 22.7 16.8 64 4.4 ESE 19 32 10 17 1016.7 1016.6 0.0

Latest Capital City Observations: Canberra | Sydney | Melbourne | Brisbane | Adelaide | Perth | Hobart | Darwin

Other Formats:

Comma delimited format used in spreadsheet applications
http://www.bom.gov.au/fwo/IDQ60901/IDQ60901.94569.axf

JavaScript Object Notation format (JSON) in row-major order
http://www.bom.gov.au/fwo/IDQ60901/IDQ60901.94569.json